Time;durP1;ratioP1;P1;durP2;ratioP2;P2;SDS_P1;SDS_P2;PMS_P1;PMS_P2;Temp;Humidity;BMP_temperature;BMP_pressure;BME280_temperature;BME280_humidity;BME280_pressure;Samples;Min_cycle;Max_cycle;Signal;HPM_P1;HPM_P2
2022/08/26 00:00:22;;;;;;;;;3.00;3.00;31.10;99.90;;;;;;5033703;28;8894;-65
2022/08/26 00:02:55;;;;;;;;;3.00;3.00;31.00;99.90;;;;;;5031340;28;8840;-67
2022/08/26 00:05:27;;;;;;;;;3.00;3.00;31.20;99.90;;;;;;5032839;28;8855;-65
2022/08/26 00:07:57;;;;;;;;;3.00;3.00;31.40;99.90;;;;;;5033271;28;8906;-67
2022/08/26 00:10:33;;;;;;;;;2.20;2.20;31.50;99.90;;;;;;5029533;28;8837;-66
2022/08/26 00:13:06;;;;;;;;;3.00;3.00;31.20;99.90;;;;;;5014154;28;9714;-69
2022/08/26 00:15:39;;;;;;;;;2.80;2.80;31.30;99.90;;;;;;5026316;28;8871;-64
2022/08/26 00:18:14;;;;;;;;;3.00;3.00;31.30;99.90;;;;;;5029875;28;8864;-65
2022/08/26 00:20:54;;;;;;;;;3.00;3.00;31.20;99.90;;;;;;5013943;28;8984;-64
2022/08/26 00:23:25;;;;;;;;;2.60;2.60;31.00;99.90;;;;;;5014353;28;8908;-63
2022/08/26 00:25:59;;;;;;;;;2.00;2.00;31.00;99.90;;;;;;5031594;28;9604;-66
2022/08/26 00:28:32;;;;;;;;;2.60;2.60;31.00;99.90;;;;;;5027680;28;8878;-66
2022/08/26 00:31:07;;;;;;;;;4.60;2.40;30.70;99.90;;;;;;5030766;28;8850;-63
2022/08/26 00:33:39;;;;;;;;;3.00;3.00;30.80;99.90;;;;;;5023941;28;8814;-65
2022/08/26 00:36:15;;;;;;;;;3.00;3.00;30.70;99.90;;;;;;5034883;28;8891;-68
2022/08/26 00:38:47;;;;;;;;;2.40;2.40;30.70;99.90;;;;;;5030885;28;8877;-66
2022/08/26 00:41:20;;;;;;;;;2.40;2.40;30.60;99.90;;;;;;5000889;28;8866;-65
2022/08/26 00:43:51;;;;;;;;;2.00;2.00;30.60;99.90;;;;;;5017889;28;8864;-66
2022/08/26 00:46:30;;;;;;;;;2.00;2.00;30.50;99.90;;;;;;5030572;28;8865;-65
2022/08/26 00:49:13;;;;;;;;;2.20;2.20;30.40;99.90;;;;;;5013832;28;8868;-65
2022/08/26 00:51:55;;;;;;;;;4.00;4.00;30.40;99.90;;;;;;5014045;28;8881;-65
2022/08/26 00:54:36;;;;;;;;;3.00;3.00;30.40;99.90;;;;;;5030051;28;8854;-66
2022/08/26 00:57:18;;;;;;;;;1.00;1.00;30.30;99.90;;;;;;5035026;28;8857;-67
2022/08/26 00:59:55;;;;;;;;;2.60;2.60;30.30;99.90;;;;;;5046976;28;8877;-65
2022/08/26 01:02:28;;;;;;;;;1.80;1.80;30.20;99.90;;;;;;5028224;28;8818;-67
2022/08/26 01:05:06;;;;;;;;;2.20;2.20;30.20;99.90;;;;;;5030834;28;10152;-67
2022/08/26 01:07:36;;;;;;;;;2.60;2.60;30.20;99.90;;;;;;5030556;28;8855;-68
2022/08/26 01:10:15;;;;;;;;;1.80;1.80;30.20;99.90;;;;;;5033073;28;8852;-68
2022/08/26 01:13:08;;;;;;;;;2.40;2.40;30.10;99.90;;;;;;5033477;28;8968;-67
2022/08/26 01:15:46;;;;;;;;;2.40;2.40;30.10;99.90;;;;;;5031159;28;8845;-65
2022/08/26 01:18:19;;;;;;;;;3.00;3.00;30.00;99.90;;;;;;5032221;28;8866;-66
2022/08/26 01:21:21;;;;;;;;;2.40;2.40;30.00;99.90;;;;;;5027457;28;8992;-63
2022/08/26 01:23:53;;;;;;;;;2.00;2.00;30.00;99.90;;;;;;5020039;28;8871;-64
2022/08/26 01:26:35;;;;;;;;;1.00;1.00;29.90;99.90;;;;;;5024253;28;8832;-63
2022/08/26 01:29:09;;;;;;;;;2.60;2.60;29.90;99.90;;;;;;5013977;28;8828;-67
2022/08/26 01:31:44;;;;;;;;;3.00;3.00;29.80;99.90;;;;;;5028357;28;8952;-65
2022/08/26 01:34:24;;;;;;;;;2.80;2.80;29.80;99.90;;;;;;5015795;28;8850;-66
2022/08/26 01:37:26;;;;;;;;;3.00;3.00;29.80;99.90;;;;;;5014531;28;8889;-65
2022/08/26 01:39:56;;;;;;;;;2.40;2.40;29.70;99.90;;;;;;5008418;28;8888;-65
2022/08/26 01:42:27;;;;;;;;;3.00;3.00;29.70;99.90;;;;;;5013469;28;8848;-65
2022/08/26 01:45:24;;;;;;;;;2.00;2.00;29.60;99.90;;;;;;5029431;28;8975;-64
2022/08/26 01:47:59;;;;;;;;;2.00;2.00;29.50;99.90;;;;;;5031690;28;8889;-65
2022/08/26 01:50:37;;;;;;;;;2.00;2.00;29.50;99.90;;;;;;5028469;28;8859;-65
2022/08/26 01:53:11;;;;;;;;;2.00;2.00;29.50;99.90;;;;;;5029233;28;8829;-65
2022/08/26 01:55:45;;;;;;;;;3.00;3.00;29.40;99.90;;;;;;5027955;28;8874;-65
2022/08/26 01:59:03;;;;;;;;;2.40;2.40;29.50;99.90;;;;;;5029682;28;8882;-65
2022/08/26 02:01:33;;;;;;;;;3.60;3.60;29.50;99.90;;;;;;5009604;28;8973;-65
2022/08/26 02:04:34;;;;;;;;;3.40;3.40;29.40;99.90;;;;;;5031728;28;8878;-66
2022/08/26 02:07:09;;;;;;;;;3.00;3.00;29.40;99.90;;;;;;5029167;28;8855;-64
2022/08/26 02:09:41;;;;;;;;;2.00;2.00;29.30;99.90;;;;;;5007953;28;10060;-65
2022/08/26 02:12:15;;;;;;;;;2.60;2.60;29.30;99.90;;;;;;5025671;28;8848;-64
2022/08/26 02:14:52;;;;;;;;;3.80;2.00;29.30;99.90;;;;;;5021588;28;8845;-64
2022/08/26 02:17:32;;;;;;;;;2.40;2.40;29.20;99.90;;;;;;5054509;28;8888;-66
2022/08/26 02:20:07;;;;;;;;;2.20;2.20;29.20;99.90;;;;;;5060415;28;8862;-66
2022/08/26 02:22:43;;;;;;;;;4.00;4.00;29.20;99.90;;;;;;5025961;28;8845;-65
2022/08/26 02:25:36;;;;;;;;;2.60;2.60;29.20;99.90;;;;;;5040273;28;8834;-66
2022/08/26 02:28:09;;;;;;;;;3.60;3.60;29.10;99.90;;;;;;5021578;28;8838;-66
2022/08/26 02:30:42;;;;;;;;;3.20;3.20;29.00;99.90;;;;;;5028685;28;8848;-65
2022/08/26 02:33:13;;;;;;;;;4.40;4.40;28.90;99.90;;;;;;5037436;28;8858;-65
2022/08/26 02:35:43;;;;;;;;;4.00;4.00;28.90;99.90;;;;;;5032883;28;8846;-65
2022/08/26 02:38:16;;;;;;;;;3.00;3.00;28.90;99.90;;;;;;5024972;28;8836;-65
2022/08/26 02:40:50;;;;;;;;;3.00;3.00;28.90;99.90;;;;;;5027891;28;8871;-68
2022/08/26 02:43:24;;;;;;;;;4.00;4.00;28.90;99.90;;;;;;5016776;28;8904;-66
2022/08/26 02:46:02;;;;;;;;;4.20;4.20;28.80;99.90;;;;;;5044065;28;8862;-65
2022/08/26 02:48:33;;;;;;;;;3.40;3.40;28.90;99.90;;;;;;5048516;28;8854;-67
2022/08/26 02:51:04;;;;;;;;;4.60;4.60;28.70;99.90;;;;;;5033668;28;8833;-66
2022/08/26 02:53:35;;;;;;;;;4.20;4.20;28.70;99.90;;;;;;5047827;28;8834;-65
2022/08/26 02:56:09;;;;;;;;;4.40;4.40;28.60;99.90;;;;;;5024949;28;8863;-66
2022/08/26 02:58:41;;;;;;;;;5.00;5.00;28.60;99.90;;;;;;5027309;28;8849;-67
2022/08/26 03:01:26;;;;;;;;;4.00;4.00;28.50;99.90;;;;;;5022362;28;9173;-66
2022/08/26 03:03:58;;;;;;;;;4.00;4.00;28.60;99.90;;;;;;5035704;28;9614;-65
2022/08/26 03:06:30;;;;;;;;;4.20;4.20;28.50;99.90;;;;;;5030235;28;9694;-65
2022/08/26 03:09:02;;;;;;;;;5.00;5.00;28.40;99.90;;;;;;5015938;28;8868;-66
2022/08/26 03:11:35;;;;;;;;;4.00;4.00;28.30;99.90;;;;;;5015872;28;8864;-66
2022/08/26 03:14:07;;;;;;;;;2.80;2.80;28.30;99.90;;;;;;5035309;28;8824;-65
2022/08/26 03:16:37;;;;;;;;;5.00;5.00;28.20;99.90;;;;;;5014071;28;8862;-63
2022/08/26 03:19:10;;;;;;;;;4.40;4.40;28.20;99.90;;;;;;5029036;28;8850;-65
2022/08/26 03:21:41;;;;;;;;;5.40;5.40;28.10;99.90;;;;;;5032248;28;8849;-67
2022/08/26 03:24:16;;;;;;;;;3.60;3.60;28.10;99.90;;;;;;5032891;28;8838;-66
2022/08/26 03:26:50;;;;;;;;;5.60;5.60;28.10;99.90;;;;;;5035210;28;8872;-67
2022/08/26 03:32:15;;;;;;;;;4.00;4.00;28.20;99.90;;;;;;5036353;28;8879;-63
2022/08/26 03:34:46;;;;;;;;;4.40;4.40;28.30;99.90;;;;;;5030937;28;8850;-66
2022/08/26 03:37:17;;;;;;;;;6.00;6.00;28.30;99.90;;;;;;5032692;28;8892;-66
2022/08/26 03:39:49;;;;;;;;;2.80;2.80;28.20;99.90;;;;;;5014614;28;8800;-65
2022/08/26 03:42:22;;;;;;;;;6.00;6.00;28.20;99.90;;;;;;5032252;28;9601;-65
2022/08/26 03:44:56;;;;;;;;;6.00;6.00;28.10;99.90;;;;;;5033616;28;8842;-65
2022/08/26 03:47:27;;;;;;;;;5.80;5.80;28.10;99.90;;;;;;5022996;28;8865;-65
2022/08/26 03:49:58;;;;;;;;;7.00;7.00;28.10;99.90;;;;;;5031746;28;8841;-66
2022/08/26 03:52:31;;;;;;;;;7.80;7.80;28.10;99.90;;;;;;5039783;28;8834;-65
2022/08/26 03:55:06;;;;;;;;;6.80;6.80;28.10;99.90;;;;;;5050199;28;8862;-66
2022/08/26 03:57:36;;;;;;;;;7.80;7.80;28.10;99.90;;;;;;5046041;28;8860;-65
2022/08/26 04:00:14;;;;;;;;;8.80;8.80;28.10;99.90;;;;;;5042312;28;8998;-65
2022/08/26 04:02:49;;;;;;;;;7.40;7.40;28.10;99.90;;;;;;5043958;28;8853;-66
2022/08/26 04:05:22;;;;;;;;;8.80;8.80;28.00;99.90;;;;;;5028331;28;8828;-64
2022/08/26 04:07:55;;;;;;;;;7.20;7.20;28.00;99.90;;;;;;5042498;28;8881;-64
2022/08/26 04:10:27;;;;;;;;;9.20;9.20;28.00;99.90;;;;;;5042875;28;8824;-65
2022/08/26 04:12:58;;;;;;;;;10.00;10.00;28.00;99.90;;;;;;5029033;28;8861;-64
2022/08/26 04:15:31;;;;;;;;;10.00;10.00;28.00;99.90;;;;;;5027752;28;8860;-65
2022/08/26 04:18:04;;;;;;;;;10.80;10.80;28.00;99.90;;;;;;5024680;28;8880;-66
2022/08/26 04:20:35;;;;;;;;;10.20;10.20;28.00;99.90;;;;;;5026967;28;8849;-66
2022/08/26 04:23:05;;;;;;;;;11.20;11.20;28.00;99.90;;;;;;5046695;28;8822;-64
2022/08/26 04:25:39;;;;;;;;;11.00;11.00;27.90;99.90;;;;;;5039737;28;8875;-65
2022/08/26 04:28:12;;;;;;;;;12.80;12.80;27.90;99.90;;;;;;5039552;28;8854;-67
2022/08/26 04:30:48;;;;;;;;;13.00;13.00;27.90;99.90;;;;;;5041549;28;8849;-69
2022/08/26 04:33:20;;;;;;;;;12.00;12.00;27.90;99.90;;;;;;5020179;28;8996;-69
2022/08/26 04:36:04;;;;;;;;;12.40;12.40;27.90;99.90;;;;;;5043572;28;8837;-66
2022/08/26 04:38:44;;;;;;;;;11.40;11.40;27.90;99.90;;;;;;5035788;28;8857;-67
2022/08/26 04:41:14;;;;;;;;;11.20;11.20;27.80;99.90;;;;;;5037989;28;8856;-69
2022/08/26 04:43:49;;;;;;;;;13.60;13.60;27.70;99.90;;;;;;5046750;28;8884;-69
2022/08/26 04:46:23;;;;;;;;;13.00;13.00;27.70;99.90;;;;;;5037628;28;8908;-67
2022/08/26 04:48:54;;;;;;;;;13.50;13.50;27.80;99.90;;;;;;5054450;28;8858;-66
2022/08/26 04:51:27;;;;;;;;;12.20;12.20;27.70;99.90;;;;;;5044054;28;8858;-66
2022/08/26 04:54:02;;;;;;;;;14.00;14.00;27.70;99.90;;;;;;5031038;28;9280;-66
2022/08/26 04:56:37;;;;;;;;;12.00;12.00;27.70;99.90;;;;;;5041545;28;8809;-67
2022/08/26 04:59:14;;;;;;;;;12.50;12.50;27.70;99.90;;;;;;4997289;28;8887;-67
2022/08/26 05:01:48;;;;;;;;;9.75;9.75;27.60;99.90;;;;;;5039850;28;8865;-67
2022/08/26 05:04:21;;;;;;;;;14.50;13.25;27.60;99.90;;;;;;5007093;28;8834;-67
2022/08/26 05:07:01;;;;;;;;;12.25;12.25;27.50;99.90;;;;;;5044333;28;8870;-68
2022/08/26 05:09:32;;;;;;;;;11.00;11.00;27.60;99.90;;;;;;5043902;28;8883;-69
2022/08/26 05:12:05;;;;;;;;;8.40;8.40;27.60;99.90;;;;;;5037120;28;8865;-69
2022/08/26 05:14:40;;;;;;;;;14.40;14.40;27.60;99.90;;;;;;5024342;28;8822;-68
2022/08/26 05:17:14;;;;;;;;;12.75;12.75;27.50;99.90;;;;;;5023351;28;9548;-69
2022/08/26 05:19:45;;;;;;;;;14.00;14.00;27.50;99.90;;;;;;5026308;28;8848;-68
2022/08/26 05:22:19;;;;;;;;;12.75;12.75;27.40;99.90;;;;;;5043002;28;8842;-66
2022/08/26 05:24:48;;;;;;;;;12.25;12.25;27.50;99.90;;;;;;5046629;28;8842;-67
2022/08/26 05:27:23;;;;;;;;;13.75;13.75;27.40;99.90;;;;;;5040076;28;8860;-66
2022/08/26 05:29:56;;;;;;;;;13.75;13.75;27.40;99.90;;;;;;5025010;28;9644;-68
2022/08/26 05:32:28;;;;;;;;;10.00;10.00;27.40;99.90;;;;;;5041143;28;8849;-66
2022/08/26 05:35:08;;;;;;;;;13.80;13.80;27.40;99.90;;;;;;5024677;28;8874;-65
2022/08/26 05:37:41;;;;;;;;;11.40;11.40;27.30;99.90;;;;;;5025831;28;8853;-67
2022/08/26 05:40:12;;;;;;;;;11.20;11.20;27.30;99.90;;;;;;5025156;28;8830;-67
2022/08/26 05:42:46;;;;;;;;;11.80;11.80;27.30;99.90;;;;;;5044050;28;9925;-67
2022/08/26 05:45:16;;;;;;;;;13.00;13.00;27.30;99.90;;;;;;5025406;28;8837;-67
2022/08/26 05:47:51;;;;;;;;;12.00;12.00;27.20;99.90;;;;;;5040525;28;8853;-67
2022/08/26 05:50:24;;;;;;;;;11.00;11.00;27.10;99.90;;;;;;5026412;28;8876;-67
2022/08/26 05:52:56;;;;;;;;;10.60;10.60;27.10;99.90;;;;;;5039440;28;8846;-68
2022/08/26 05:55:28;;;;;;;;;11.75;11.75;27.10;99.90;;;;;;5040067;28;8898;-68
2022/08/26 05:58:04;;;;;;;;;10.00;10.00;27.10;99.90;;;;;;5022886;28;8919;-68
2022/08/26 06:00:37;;;;;;;;;10.20;10.20;27.00;99.90;;;;;;5011478;28;8856;-67
2022/08/26 06:03:09;;;;;;;;;11.20;11.20;26.90;99.90;;;;;;5036444;28;8834;-68
2022/08/26 06:05:42;;;;;;;;;11.50;11.00;26.90;99.90;;;;;;5043762;28;8868;-66
2022/08/26 06:08:14;;;;;;;;;10.00;10.00;26.90;99.90;;;;;;5023434;28;8841;-67
2022/08/26 06:10:56;;;;;;;;;10.25;10.25;26.90;99.90;;;;;;5039120;28;8883;-67
2022/08/26 06:13:28;;;;;;;;;11.00;11.00;26.90;99.90;;;;;;5041517;28;8844;-67
2022/08/26 06:16:07;;;;;;;;;12.50;12.50;26.90;99.90;;;;;;5038813;28;9337;-68
2022/08/26 06:18:42;;;;;;;;;10.00;10.00;26.90;99.90;;;;;;5035628;28;8882;-67
2022/08/26 06:21:17;;;;;;;;;9.50;9.50;27.00;99.90;;;;;;5042609;28;8968;-67
2022/08/26 06:26:43;;;;;;;;;11.00;11.00;26.90;99.90;;;;;;5042829;28;8833;-67
2022/08/26 06:29:23;;;;;;;;;10.50;10.00;26.90;99.90;;;;;;5007553;28;8873;-68
2022/08/26 06:31:58;;;;;;;;;11.00;11.00;26.90;99.90;;;;;;5041660;28;9665;-68
2022/08/26 06:34:32;;;;;;;;;11.00;11.00;26.90;99.90;;;;;;5007547;28;9769;-68
2022/08/26 06:37:04;;;;;;;;;11.75;11.75;26.90;99.90;;;;;;5036600;28;8852;-68
2022/08/26 06:39:37;;;;;;;;;8.50;8.50;26.80;99.90;;;;;;5040907;28;8829;-69
2022/08/26 06:42:10;;;;;;;;;11.00;11.00;26.80;99.90;;;;;;5029868;28;8830;-68
2022/08/26 06:44:45;;;;;;;;;9.50;9.50;26.80;99.90;;;;;;5023540;28;8818;-66
2022/08/26 06:47:16;;;;;;;;;11.00;11.00;26.70;99.90;;;;;;5026185;28;8830;-67
2022/08/26 06:49:50;;;;;;;;;11.25;11.25;26.60;99.90;;;;;;5042673;28;8987;-67
2022/08/26 06:52:23;;;;;;;;;11.50;11.50;26.50;99.90;;;;;;5009715;28;8864;-67
2022/08/26 06:54:55;;;;;;;;;11.00;11.00;26.50;99.90;;;;;;5039874;28;8856;-66
2022/08/26 06:57:27;;;;;;;;;7.40;7.40;26.50;99.90;;;;;;5034942;28;8860;-66
2022/08/26 07:00:03;;;;;;;;;9.50;9.50;26.60;99.90;;;;;;5040876;28;9041;-68
2022/08/26 07:02:34;;;;;;;;;10.25;10.25;26.50;99.90;;;;;;5040105;28;8866;-67
2022/08/26 07:05:06;;;;;;;;;12.00;12.00;26.50;99.90;;;;;;5022207;28;8831;-68
2022/08/26 07:07:38;;;;;;;;;8.60;8.60;26.50;99.90;;;;;;5038675;28;8868;-67
2022/08/26 07:10:11;;;;;;;;;8.75;8.75;26.50;99.90;;;;;;5043673;28;8991;-67
2022/08/26 07:12:42;;;;;;;;;6.50;6.50;26.40;99.90;;;;;;5035244;28;8892;-66
2022/08/26 07:15:15;;;;;;;;;8.33;8.33;26.40;99.90;;;;;;5046187;28;8820;-68
2022/08/26 07:17:52;;;;;;;;;10.25;10.25;26.40;99.90;;;;;;5033107;28;8888;-66
2022/08/26 07:20:23;;;;;;;;;10.00;10.00;26.30;99.90;;;;;;5024468;28;8860;-66
2022/08/26 07:22:57;;;;;;;;;10.75;10.75;26.30;99.90;;;;;;5031293;28;8896;-66
2022/08/26 07:25:33;;;;;;;;;9.20;9.20;26.20;99.90;;;;;;5040867;28;8838;-66
2022/08/26 07:28:05;;;;;;;;;9.50;9.50;26.20;99.90;;;;;;5045790;28;8853;-66
2022/08/26 07:30:40;;;;;;;;;10.50;10.50;26.10;99.90;;;;;;5041301;28;8843;-68
2022/08/26 07:33:12;;;;;;;;;11.00;11.00;26.10;99.90;;;;;;5050001;28;8888;-67
2022/08/26 07:35:44;;;;;;;;;10.50;10.50;26.10;99.90;;;;;;5043062;28;8883;-67
2022/08/26 07:38:16;;;;;;;;;8.25;8.25;26.00;99.90;;;;;;5044765;28;8900;-67
2022/08/26 07:40:50;;;;;;;;;8.25;8.25;26.00;99.90;;;;;;5030422;28;10510;-68
2022/08/26 07:43:22;;;;;;;;;9.00;9.00;26.10;99.90;;;;;;5027666;28;8838;-67
2022/08/26 07:45:52;;;;;;;;;8.00;8.00;26.10;99.90;;;;;;5023187;28;9747;-66
2022/08/26 07:48:23;;;;;;;;;10.00;10.00;25.90;99.90;;;;;;5025875;28;8894;-66
2022/08/26 07:50:55;;;;;;;;;11.50;11.50;25.70;99.90;;;;;;5042407;28;8814;-67
2022/08/26 07:53:31;;;;;;;;;8.25;8.25;25.70;99.90;;;;;;5025008;28;8853;-67
2022/08/26 07:56:02;;;;;;;;;8.50;8.50;25.80;99.90;;;;;;5024837;28;8916;-67
2022/08/26 07:58:32;;;;;;;;;10.00;10.00;25.70;99.90;;;;;;5042249;28;9852;-67
2022/08/26 08:01:06;;;;;;;;;10.25;10.25;25.50;99.90;;;;;;5045444;28;8866;-67
2022/08/26 08:03:40;;;;;;;;;9.00;9.00;25.50;99.90;;;;;;5042583;28;8844;-67
2022/08/26 08:06:13;;;;;;;;;9.00;9.00;25.50;99.90;;;;;;5025780;28;8884;-68
2022/08/26 08:08:45;;;;;;;;;9.25;9.25;25.50;99.90;;;;;;5055734;28;8840;-69
2022/08/26 08:11:22;;;;;;;;;9.00;9.00;25.40;99.90;;;;;;5044780;28;8842;-67
2022/08/26 08:13:55;;;;;;;;;10.00;10.00;25.30;99.90;;;;;;5046236;28;8840;-67
2022/08/26 08:16:31;;;;;;;;;10.50;10.50;25.40;99.90;;;;;;5041723;28;8892;-68
2022/08/26 08:19:03;;;;;;;;;8.25;8.25;25.30;99.90;;;;;;5037530;28;9620;-68
2022/08/26 08:21:34;;;;;;;;;11.75;9.75;25.50;99.90;;;;;;5043832;28;8867;-66
2022/08/26 08:24:05;;;;;;;;;8.50;8.50;25.40;99.90;;;;;;5056362;28;8856;-67
2022/08/26 08:26:36;;;;;;;;;9.25;9.25;25.30;99.90;;;;;;5048496;28;8793;-68
2022/08/26 08:29:08;;;;;;;;;9.00;9.00;25.60;99.90;;;;;;5047318;28;8854;-68
2022/08/26 08:31:44;;;;;;;;;9.75;9.75;25.30;99.90;;;;;;5043169;28;8884;-68
2022/08/26 08:34:28;;;;;;;;;9.00;9.00;25.10;99.90;;;;;;5024904;28;8849;-68
2022/08/26 08:37:06;;;;;;;;;10.00;10.00;25.10;99.90;;;;;;5043731;28;8825;-67
2022/08/26 08:39:38;;;;;;;;;10.75;10.75;25.20;99.90;;;;;;5024999;28;8841;-67
2022/08/26 08:42:09;;;;;;;;;10.75;10.75;25.30;99.90;;;;;;5040560;28;8893;-68
2022/08/26 08:44:48;;;;;;;;;12.25;11.75;25.30;99.90;;;;;;5045047;28;8822;-68
2022/08/26 08:47:35;;;;;;;;;10.00;10.00;25.20;99.90;;;;;;5025923;28;8892;-65
2022/08/26 08:50:28;;;;;;;;;10.75;10.75;25.10;99.90;;;;;;5044384;28;8848;-67
2022/08/26 08:53:28;;;;;;;;;10.75;10.75;25.00;99.90;;;;;;5027849;28;8850;-66
2022/08/26 08:56:15;;;;;;;;;10.00;10.00;25.00;99.90;;;;;;5025779;28;8843;-68
2022/08/26 08:59:09;;;;;;;;;12.25;12.25;24.90;99.90;;;;;;5027314;28;9618;-68
2022/08/26 09:01:50;;;;;;;;;11.00;11.00;25.10;99.90;;;;;;5039277;28;8823;-66
2022/08/26 09:04:43;;;;;;;;;10.25;10.25;24.90;99.90;;;;;;5027565;28;8834;-66
2022/08/26 09:07:40;;;;;;;;;10.75;10.75;24.80;99.90;;;;;;5040906;28;8888;-68
2022/08/26 09:10:21;;;;;;;;;12.50;12.50;24.90;99.90;;;;;;5042483;28;8834;-68
2022/08/26 09:12:54;;;;;;;;;10.75;10.75;24.90;99.90;;;;;;5040640;28;8990;-69
2022/08/26 09:15:49;;;;;;;;;10.75;10.75;25.00;99.90;;;;;;5044861;28;8850;-67
2022/08/26 09:18:50;;;;;;;;;11.75;11.75;24.90;99.90;;;;;;5031855;28;8856;-67
2022/08/26 09:21:23;;;;;;;;;8.25;8.25;24.80;99.90;;;;;;5039442;28;8878;-68
2022/08/26 09:24:01;;;;;;;;;9.75;9.75;24.80;99.90;;;;;;5043381;28;8834;-67
2022/08/26 09:26:41;;;;;;;;;12.50;12.00;24.70;99.90;;;;;;5057494;28;8877;-67
2022/08/26 09:29:34;;;;;;;;;11.25;11.25;24.70;99.90;;;;;;5044529;28;8992;-68
2022/08/26 09:32:23;;;;;;;;;10.25;10.25;24.70;99.90;;;;;;5057119;28;9514;-66
2022/08/26 09:35:06;;;;;;;;;9.50;9.50;24.70;99.90;;;;;;5047320;28;8837;-67
2022/08/26 09:37:48;;;;;;;;;9.50;9.50;24.70;99.90;;;;;;5041662;28;8866;-67
2022/08/26 09:40:25;;;;;;;;;11.00;11.00;24.70;99.90;;;;;;5053679;28;9642;-67
2022/08/26 09:43:11;;;;;;;;;10.75;10.75;24.70;99.90;;;;;;5045037;28;8860;-67
2022/08/26 09:45:55;;;;;;;;;10.25;10.25;24.60;99.90;;;;;;5039053;28;8871;-68
2022/08/26 09:48:36;;;;;;;;;9.00;9.00;24.60;99.90;;;;;;5043731;28;8878;-67
2022/08/26 09:51:27;;;;;;;;;11.50;11.50;24.60;99.90;;;;;;5051875;28;9007;-66
2022/08/26 09:54:07;;;;;;;;;11.00;11.00;24.50;99.90;;;;;;5020233;28;8829;-66
2022/08/26 09:56:39;;;;;;;;;9.50;9.50;24.60;99.90;;;;;;5034488;28;8846;-67
2022/08/26 09:59:11;;;;;;;;;10.75;10.75;24.50;99.90;;;;;;5038556;28;8828;-66
2022/08/26 10:01:43;;;;;;;;;8.25;8.25;24.50;99.90;;;;;;5018302;28;8856;-67
2022/08/26 10:04:21;;;;;;;;;9.25;9.25;24.40;99.90;;;;;;5046664;28;9299;-68
2022/08/26 10:06:59;;;;;;;;;10.00;10.00;24.50;99.90;;;;;;5040885;28;8845;-68
2022/08/26 10:09:36;;;;;;;;;10.00;10.00;24.50;99.90;;;;;;5044042;28;8842;-68
2022/08/26 10:12:15;;;;;;;;;10.50;10.50;24.40;99.90;;;;;;5044922;28;9529;-68
2022/08/26 10:14:54;;;;;;;;;10.00;10.00;24.30;99.90;;;;;;5043341;28;8841;-67
2022/08/26 10:17:49;;;;;;;;;9.00;9.00;24.40;99.90;;;;;;5029876;28;8888;-69
2022/08/26 10:20:29;;;;;;;;;12.50;11.25;24.50;99.90;;;;;;5048716;28;8821;-68
2022/08/26 10:23:13;;;;;;;;;11.25;11.25;24.30;99.90;;;;;;5042032;28;8826;-68
2022/08/26 10:25:52;;;;;;;;;9.50;9.50;24.30;99.90;;;;;;5027658;28;8870;-68
2022/08/26 10:28:33;;;;;;;;;8.75;8.75;24.30;99.90;;;;;;5046904;28;8851;-68
2022/08/26 10:31:34;;;;;;;;;9.25;9.25;24.30;99.90;;;;;;5042809;28;8833;-68
2022/08/26 10:34:12;;;;;;;;;9.00;9.00;24.30;99.90;;;;;;5042836;28;8848;-67
2022/08/26 10:36:59;;;;;;;;;10.00;10.00;24.20;99.90;;;;;;5045412;28;8863;-68
2022/08/26 10:39:56;;;;;;;;;9.00;9.00;24.30;99.90;;;;;;5027469;28;8888;-68
2022/08/26 10:43:47;;;;;;;;;9.75;9.75;24.20;99.90;;;;;;5023321;28;8864;-66
2022/08/26 10:46:22;;;;;;;;;9.25;9.25;24.00;99.90;;;;;;4942161;28;8914;-67
2022/08/26 10:49:16;;;;;;;;;11.00;11.00;24.20;99.90;;;;;;4942206;28;8880;-67
2022/08/26 10:52:16;;;;;;;;;10.50;10.50;24.30;99.90;;;;;;5022845;28;8877;-68
2022/08/26 10:55:01;;;;;;;;;10.50;10.50;24.30;99.90;;;;;;5049372;28;8828;-68
2022/08/26 10:58:08;;;;;;;;;9.00;9.00;24.40;99.90;;;;;;5053375;28;8868;-69
2022/08/26 11:04:00;;;;;;;;;12.75;12.75;24.10;99.90;;;;;;5043310;28;9618;-66
2022/08/26 11:06:35;;;;;;;;;9.50;9.50;24.20;99.90;;;;;;5027352;28;8875;-67
2022/08/26 11:09:09;;;;;;;;;11.00;11.00;24.30;99.90;;;;;;5012808;28;8848;-66
2022/08/26 11:11:46;;;;;;;;;11.00;11.00;24.20;99.90;;;;;;5025963;28;8854;-66
2022/08/26 11:14:20;;;;;;;;;7.25;7.25;24.30;99.90;;;;;;5045626;28;8822;-66
2022/08/26 11:17:03;;;;;;;;;9.50;9.50;24.40;99.90;;;;;;5044099;28;8843;-68
2022/08/26 11:19:42;;;;;;;;;8.00;8.00;24.20;99.90;;;;;;5043774;28;8832;-69
2022/08/26 11:22:36;;;;;;;;;9.25;9.25;24.10;99.90;;;;;;5045743;28;8877;-67
2022/08/26 11:25:26;;;;;;;;;9.00;9.00;23.90;99.90;;;;;;5028756;28;8986;-69
2022/08/26 11:27:58;;;;;;;;;8.75;8.75;23.90;99.90;;;;;;5011169;28;8810;-70
2022/08/26 11:30:37;;;;;;;;;9.50;9.50;23.80;99.90;;;;;;5029253;28;10007;-67
2022/08/26 11:33:30;;;;;;;;;10.00;10.00;23.70;99.90;;;;;;5050128;28;8855;-67
2022/08/26 11:36:02;;;;;;;;;10.00;10.00;23.80;99.90;;;;;;5050489;28;8849;-67
2022/08/26 11:38:42;;;;;;;;;10.00;10.00;23.90;99.90;;;;;;5043002;28;8838;-67
2022/08/26 11:41:27;;;;;;;;;8.75;8.50;23.90;99.90;;;;;;5028184;28;8861;-66
2022/08/26 11:44:01;;;;;;;;;10.00;10.00;23.80;99.90;;;;;;5038694;28;8862;-67
2022/08/26 11:46:36;;;;;;;;;10.50;10.50;23.60;99.90;;;;;;5040212;28;8842;-70
2022/08/26 11:49:11;;;;;;;;;10.50;10.50;23.60;99.90;;;;;;5046851;28;8840;-69
2022/08/26 11:51:44;;;;;;;;;9.50;9.50;23.60;99.90;;;;;;5039446;28;8834;-70
2022/08/26 11:54:20;;;;;;;;;9.75;9.75;23.70;99.90;;;;;;5041457;28;8840;-70
2022/08/26 11:57:06;;;;;;;;;9.50;9.50;23.70;99.90;;;;;;5044611;28;8854;-67
2022/08/26 11:59:42;;;;;;;;;10.00;10.00;23.70;99.90;;;;;;5029102;28;8878;-68
2022/08/26 12:02:19;;;;;;;;;5.25;5.25;23.70;99.90;;;;;;5045944;28;8902;-67
2022/08/26 12:04:53;;;;;;;;;9.50;8.50;23.80;99.90;;;;;;5026796;28;9894;-70
2022/08/26 12:07:29;;;;;;;;;10.00;9.25;23.80;99.90;;;;;;5048222;28;9003;-69
2022/08/26 12:10:05;;;;;;;;;10.75;9.00;23.80;99.90;;;;;;5047259;28;9562;-67
2022/08/26 12:12:39;;;;;;;;;8.50;7.50;23.90;99.90;;;;;;5057716;28;8844;-67
2022/08/26 12:15:20;;;;;;;;;10.00;10.00;23.90;99.90;;;;;;5038335;28;9856;-69
2022/08/26 12:17:52;;;;;;;;;10.00;10.00;24.00;99.90;;;;;;5034658;28;8880;-69
2022/08/26 12:20:46;;;;;;;;;6.75;6.75;23.80;99.90;;;;;;5032018;28;8839;-67
2022/08/26 12:23:34;;;;;;;;;8.25;8.25;23.70;99.90;;;;;;5049494;28;9571;-68
2022/08/26 12:26:28;;;;;;;;;7.75;7.75;23.60;99.90;;;;;;5032698;28;8841;-67
2022/08/26 12:29:06;;;;;;;;;7.50;7.50;23.70;99.90;;;;;;5033655;28;8853;-67
2022/08/26 12:31:49;;;;;;;;;8.50;8.50;23.80;99.90;;;;;;5048722;28;8854;-70
2022/08/26 12:34:24;;;;;;;;;7.00;7.00;23.70;99.90;;;;;;5046080;28;8860;-70
2022/08/26 12:36:58;;;;;;;;;11.00;11.00;23.90;99.90;;;;;;5049516;28;8856;-70
2022/08/26 12:39:38;;;;;;;;;8.50;8.50;23.80;99.90;;;;;;5033531;28;8838;-69
2022/08/26 12:42:17;;;;;;;;;10.25;9.50;24.00;99.90;;;;;;5049401;28;9218;-68
2022/08/26 12:44:57;;;;;;;;;8.25;8.25;23.90;99.90;;;;;;5020546;28;8869;-68
2022/08/26 12:47:41;;;;;;;;;11.75;11.75;24.00;99.90;;;;;;5047466;28;9790;-68
2022/08/26 12:50:23;;;;;;;;;9.50;9.50;24.00;99.90;;;;;;5019217;28;8841;-68
2022/08/26 12:53:01;;;;;;;;;8.25;8.25;24.10;99.90;;;;;;5028913;28;9619;-69
2022/08/26 12:55:57;;;;;;;;;7.25;7.25;24.20;99.90;;;;;;5022143;28;8833;-71
2022/08/26 12:58:37;;;;;;;;;7.75;7.75;24.30;99.90;;;;;;5027279;28;8862;-68
2022/08/26 13:01:13;;;;;;;;;7.75;7.75;24.40;99.90;;;;;;5027557;28;8843;-70
2022/08/26 13:03:44;;;;;;;;;7.00;7.00;24.40;99.90;;;;;;5027986;28;8838;-68
2022/08/26 13:06:17;;;;;;;;;7.75;7.75;24.40;99.90;;;;;;5022982;28;8843;-68
2022/08/26 13:08:51;;;;;;;;;8.00;8.00;24.40;99.90;;;;;;5024245;28;8869;-68
2022/08/26 13:11:24;;;;;;;;;7.00;7.00;24.50;99.90;;;;;;5034496;28;8907;-67
2022/08/26 13:14:00;;;;;;;;;9.00;9.00;24.60;99.90;;;;;;5025479;28;8881;-68
2022/08/26 13:16:35;;;;;;;;;6.75;6.75;24.70;99.90;;;;;;5024807;28;8853;-66
2022/08/26 13:19:13;;;;;;;;;9.50;8.00;24.60;99.90;;;;;;5031388;28;8858;-66
2022/08/26 13:21:52;;;;;;;;;8.25;8.25;24.60;99.90;;;;;;5005396;28;8857;-68
2022/08/26 13:24:34;;;;;;;;;7.00;7.00;24.60;99.90;;;;;;5019118;28;8861;-67
2022/08/26 13:27:08;;;;;;;;;7.50;7.50;24.80;99.90;;;;;;5018975;28;9638;-65
2022/08/26 13:29:40;;;;;;;;;5.25;5.25;24.80;99.90;;;;;;5022646;28;8881;-67
2022/08/26 13:32:12;;;;;;;;;9.00;7.25;24.80;99.90;;;;;;5024973;28;8864;-68
2022/08/26 13:34:47;;;;;;;;;6.25;6.25;24.90;99.90;;;;;;5027060;28;8867;-69
2022/08/26 13:37:22;;;;;;;;;6.50;6.50;24.90;99.90;;;;;;5022734;28;8833;-68
2022/08/26 13:40:06;;;;;;;;;7.00;7.00;25.00;99.90;;;;;;5022762;28;9609;-67
2022/08/26 13:42:42;;;;;;;;;7.00;5.50;25.00;99.90;;;;;;5023647;28;9656;-69
2022/08/26 13:45:17;;;;;;;;;8.25;8.25;25.10;99.90;;;;;;5020582;28;8835;-68
2022/08/26 13:47:49;;;;;;;;;8.00;8.00;25.00;99.90;;;;;;5039909;28;8830;-67